sensor_id;sensor_type;location;lat;lon;timestamp;pressure;altitude;pressure_sealevel;temperature;humidity
16255;BME280;8235;52.198;9.904;2022-07-23T00:00:16;101049.13;;;16.87;78.18
16255;BME280;8235;52.198;9.904;2022-07-23T00:02:43;101055.34;;;16.88;78.24
16255;BME280;8235;52.198;9.904;2022-07-23T00:05:09;101051.69;;;16.89;78.42
16255;BME280;8235;52.198;9.904;2022-07-23T00:07:37;101053.78;;;16.85;78.12
16255;BME280;8235;52.198;9.904;2022-07-23T00:10:04;101045.13;;;16.82;78.27
16255;BME280;8235;52.198;9.904;2022-07-23T00:12:32;101043.66;;;16.78;78.28
16255;BME280;8235;52.198;9.904;2022-07-23T00:14:59;101051.13;;;16.74;78.66
16255;BME280;8235;52.198;9.904;2022-07-23T00:17:26;101048.56;;;16.73;78.91
16255;BME280;8235;52.198;9.904;2022-07-23T00:19:52;101044.03;;;16.73;79.14
16255;BME280;8235;52.198;9.904;2022-07-23T00:22:19;101045.75;;;16.74;79.24
16255;BME280;8235;52.198;9.904;2022-07-23T00:24:45;101044.16;;;16.72;79.50
16255;BME280;8235;52.198;9.904;2022-07-23T00:27:12;101041.72;;;16.69;79.19
16255;BME280;8235;52.198;9.904;2022-07-23T00:29:40;101038.31;;;16.66;79.23
16255;BME280;8235;52.198;9.904;2022-07-23T00:32:06;101045.53;;;16.66;79.47
16255;BME280;8235;52.198;9.904;2022-07-23T00:34:33;101059.13;;;16.64;79.35
16255;BME280;8235;52.198;9.904;2022-07-23T00:36:59;101056.44;;;16.64;79.40
16255;BME280;8235;52.198;9.904;2022-07-23T00:39:26;101052.88;;;16.64;79.42
16255;BME280;8235;52.198;9.904;2022-07-23T00:41:53;101045.69;;;16.64;79.62
16255;BME280;8235;52.198;9.904;2022-07-23T00:44:21;101038.78;;;16.60;79.41
16255;BME280;8235;52.198;9.904;2022-07-23T00:46:51;101046.13;;;16.58;79.53
16255;BME280;8235;52.198;9.904;2022-07-23T00:49:19;101053.34;;;16.58;79.78
16255;BME280;8235;52.198;9.904;2022-07-23T00:51:46;101056.03;;;16.58;79.91
16255;BME280;8235;52.198;9.904;2022-07-23T00:54:13;101055.19;;;16.57;80.02
16255;BME280;8235;52.198;9.904;2022-07-23T00:56:41;101054.31;;;16.57;80.17
16255;BME280;8235;52.198;9.904;2022-07-23T00:59:09;101053.47;;;16.56;80.20
16255;BME280;8235;52.198;9.904;2022-07-23T01:01:35;101048.94;;;16.57;80.54
16255;BME280;8235;52.198;9.904;2022-07-23T01:04:04;101047.22;;;16.56;80.24
16255;BME280;8235;52.198;9.904;2022-07-23T01:06:33;101044.66;;;16.54;79.74
16255;BME280;8235;52.198;9.904;2022-07-23T01:09:00;101054.94;;;16.49;79.68
16255;BME280;8235;52.198;9.904;2022-07-23T01:11:27;101054.47;;;16.44;79.90
16255;BME280;8235;52.198;9.904;2022-07-23T01:13:54;101042.38;;;16.39;79.95
16255;BME280;8235;52.198;9.904;2022-07-23T01:16:20;101027.47;;;16.35;80.15
16255;BME280;8235;52.198;9.904;2022-07-23T01:18:47;101021.25;;;16.34;80.50
16255;BME280;8235;52.198;9.904;2022-07-23T01:21:17;101023.19;;;16.32;80.33
16255;BME280;8235;52.198;9.904;2022-07-23T01:23:46;101027.88;;;16.30;80.44
16255;BME280;8235;52.198;9.904;2022-07-23T01:26:12;101025.44;;;16.27;80.61
16255;BME280;8235;52.198;9.904;2022-07-23T01:28:41;101012.97;;;16.26;81.02
16255;BME280;8235;52.198;9.904;2022-07-23T01:31:07;101007.59;;;16.26;80.90
16255;BME280;8235;52.198;9.904;2022-07-23T01:33:34;101002.09;;;16.27;80.92
16255;BME280;8235;52.198;9.904;2022-07-23T01:36:00;101001.25;;;16.27;80.56
16255;BME280;8235;52.198;9.904;2022-07-23T01:38:27;101004.91;;;16.26;80.45
16255;BME280;8235;52.198;9.904;2022-07-23T01:40:54;100999.66;;;16.24;80.30
16255;BME280;8235;52.198;9.904;2022-07-23T01:43:21;101003.44;;;16.22;80.49
16255;BME280;8235;52.198;9.904;2022-07-23T01:45:48;101006.13;;;16.22;80.29
16255;BME280;8235;52.198;9.904;2022-07-23T01:48:14;101016.03;;;16.21;80.47
16255;BME280;8235;52.198;9.904;2022-07-23T01:50:41;101002.72;;;16.20;80.19
16255;BME280;8235;52.198;9.904;2022-07-23T01:53:08;100986.72;;;16.18;80.23
16255;BME280;8235;52.198;9.904;2022-07-23T01:55:34;100995.13;;;16.14;80.17
16255;BME280;8235;52.198;9.904;2022-07-23T01:58:02;101003.47;;;16.11;80.34
16255;BME280;8235;52.198;9.904;2022-07-23T02:00:29;100996.50;;;16.08;80.46
16255;BME280;8235;52.198;9.904;2022-07-23T02:02:55;100997.59;;;16.06;80.17
16255;BME280;8235;52.198;9.904;2022-07-23T02:05:23;101003.94;;;16.05;80.35
16255;BME280;8235;52.198;9.904;2022-07-23T02:07:50;101009.56;;;16.02;80.63
16255;BME280;8235;52.198;9.904;2022-07-23T02:10:17;101011.50;;;16.00;80.67
16255;BME280;8235;52.198;9.904;2022-07-23T02:12:44;101016.16;;;15.97;81.14
16255;BME280;8235;52.198;9.904;2022-07-23T02:15:12;101010.91;;;15.96;81.17
16255;BME280;8235;52.198;9.904;2022-07-23T02:17:39;101016.41;;;15.94;81.49
16255;BME280;8235;52.198;9.904;2022-07-23T02:20:08;100998.59;;;15.93;81.85
16255;BME280;8235;52.198;9.904;2022-07-23T02:22:35;100997.88;;;15.91;82.19
16255;BME280;8235;52.198;9.904;2022-07-23T02:25:02;101005.94;;;15.91;82.54
16255;BME280;8235;52.198;9.904;2022-07-23T02:27:29;101011.28;;;15.91;82.92
16255;BME280;8235;52.198;9.904;2022-07-23T02:29:56;101014.84;;;15.92;83.19
16255;BME280;8235;52.198;9.904;2022-07-23T02:32:24;101010.31;;;15.92;83.60
16255;BME280;8235;52.198;9.904;2022-07-23T02:34:51;101009.47;;;15.92;83.87
16255;BME280;8235;52.198;9.904;2022-07-23T02:37:18;101013.97;;;15.91;84.14
16255;BME280;8235;52.198;9.904;2022-07-23T02:39:44;101013.13;;;15.91;84.32
16255;BME280;8235;52.198;9.904;2022-07-23T02:42:11;101024.84;;;15.90;84.23
16255;BME280;8235;52.198;9.904;2022-07-23T02:44:37;101026.69;;;15.89;84.53
16255;BME280;8235;52.198;9.904;2022-07-23T02:47:04;101036.56;;;15.89;84.58
16255;BME280;8235;52.198;9.904;2022-07-23T02:49:32;101020.56;;;15.87;84.78
16255;BME280;8235;52.198;9.904;2022-07-23T02:51:58;101013.59;;;15.85;84.15
16255;BME280;8235;52.198;9.904;2022-07-23T02:54:25;101019.94;;;15.84;84.46
16255;BME280;8235;52.198;9.904;2022-07-23T02:56:52;101011.16;;;15.82;84.63
16255;BME280;8235;52.198;9.904;2022-07-23T02:59:18;101013.84;;;15.82;84.03
16255;BME280;8235;52.198;9.904;2022-07-23T03:01:45;101009.44;;;15.81;84.01
16255;BME280;8235;52.198;9.904;2022-07-23T03:04:12;101012.13;;;15.81;83.84
16255;BME280;8235;52.198;9.904;2022-07-23T03:06:40;101006.75;;;15.81;84.17
16255;BME280;8235;52.198;9.904;2022-07-23T03:09:06;101005.06;;;15.80;83.92
16255;BME280;8235;52.198;9.904;2022-07-23T03:11:33;101005.06;;;15.80;83.95
16255;BME280;8235;52.198;9.904;2022-07-23T03:13:59;101011.28;;;15.80;83.81
16255;BME280;8235;52.198;9.904;2022-07-23T03:16:26;101013.00;;;15.81;84.02
16255;BME280;8235;52.198;9.904;2022-07-23T03:18:52;101007.63;;;15.81;84.11
16255;BME280;8235;52.198;9.904;2022-07-23T03:21:19;101007.38;;;15.84;83.93
16255;BME280;8235;52.198;9.904;2022-07-23T03:23:47;101004.56;;;15.86;84.18
16255;BME280;8235;52.198;9.904;2022-07-23T03:26:13;100995.41;;;15.88;84.14
16255;BME280;8235;52.198;9.904;2022-07-23T03:28:40;100997.88;;;15.91;84.03
16255;BME280;8235;52.198;9.904;2022-07-23T03:31:06;101000.28;;;15.94;83.76
16255;BME280;8235;52.198;9.904;2022-07-23T03:33:33;100994.78;;;15.96;83.50
16255;BME280;8235;52.198;9.904;2022-07-23T03:35:59;100989.28;;;15.97;83.24
16255;BME280;8235;52.198;9.904;2022-07-23T03:38:26;100977.56;;;15.98;83.54
16255;BME280;8235;52.198;9.904;2022-07-23T03:40:54;100974.88;;;15.98;83.05
16255;BME280;8235;52.198;9.904;2022-07-23T03:43:20;100990.16;;;15.98;83.43
16255;BME280;8235;52.198;9.904;2022-07-23T03:45:49;100987.47;;;15.98;83.49
16255;BME280;8235;52.198;9.904;2022-07-23T03:48:16;100976.59;;;16.00;83.48
16255;BME280;8235;52.198;9.904;2022-07-23T03:50:42;100979.16;;;16.01;83.41
16255;BME280;8235;52.198;9.904;2022-07-23T03:53:09;100967.44;;;16.02;83.33
16255;BME280;8235;52.198;9.904;2022-07-23T03:55:35;100979.91;;;16.03;83.34
16255;BME280;8235;52.198;9.904;2022-07-23T03:58:03;100989.53;;;16.06;83.60
16255;BME280;8235;52.198;9.904;2022-07-23T04:00:30;100994.91;;;16.06;83.66
16255;BME280;8235;52.198;9.904;2022-07-23T04:02:56;100998.34;;;16.08;83.91
16255;BME280;8235;52.198;9.904;2022-07-23T04:05:23;100998.22;;;16.09;84.01
16255;BME280;8235;52.198;9.904;2022-07-23T04:07:49;100993.56;;;16.11;84.24
16255;BME280;8235;52.198;9.904;2022-07-23T04:10:16;100982.81;;;16.11;84.10
16255;BME280;8235;52.198;9.904;2022-07-23T04:12:42;100989.06;;;16.12;83.84
16255;BME280;8235;52.198;9.904;2022-07-23T04:15:10;100977.44;;;16.11;83.76
16255;BME280;8235;52.198;9.904;2022-07-23T04:17:37;100976.31;;;16.14;83.63
16255;BME280;8235;52.198;9.904;2022-07-23T04:20:04;100968.38;;;16.12;83.56
16255;BME280;8235;52.198;9.904;2022-07-23T04:22:31;100986.50;;;16.10;83.88
16255;BME280;8235;52.198;9.904;2022-07-23T04:24:57;100994.66;;;16.09;84.02
16255;BME280;8235;52.198;9.904;2022-07-23T04:27:24;100992.00;;;16.09;84.14
16255;BME280;8235;52.198;9.904;2022-07-23T04:29:50;100977.56;;;16.10;84.60
16255;BME280;8235;52.198;9.904;2022-07-23T04:32:18;100968.53;;;16.11;84.82
16255;BME280;8235;52.198;9.904;2022-07-23T04:34:45;100975.75;;;16.10;84.68
16255;BME280;8235;52.198;9.904;2022-07-23T04:37:11;100982.22;;;16.08;85.03
16255;BME280;8235;52.198;9.904;2022-07-23T04:39:38;100993.94;;;16.07;85.35
16255;BME280;8235;52.198;9.904;2022-07-23T04:42:04;101008.22;;;16.07;85.21
16255;BME280;8235;52.198;9.904;2022-07-23T04:44:31;101002.00;;;16.07;85.57
16255;BME280;8235;52.198;9.904;2022-07-23T04:46:57;101009.22;;;16.06;85.52
16255;BME280;8235;52.198;9.904;2022-07-23T04:49:25;101011.88;;;16.06;85.44
16255;BME280;8235;52.198;9.904;2022-07-23T04:51:52;101004.69;;;16.07;85.46
16255;BME280;8235;52.198;9.904;2022-07-23T04:54:18;101003.72;;;16.08;85.49
16255;BME280;8235;52.198;9.904;2022-07-23T04:56:45;101013.47;;;16.09;85.41
16255;BME280;8235;52.198;9.904;2022-07-23T04:59:11;101017.88;;;16.10;85.75
16255;BME280;8235;52.198;9.904;2022-07-23T05:01:38;101018.63;;;16.12;85.62
16255;BME280;8235;52.198;9.904;2022-07-23T05:04:05;101020.44;;;16.11;85.56
16255;BME280;8235;52.198;9.904;2022-07-23T05:06:33;101018.63;;;16.12;85.64
16255;BME280;8235;52.198;9.904;2022-07-23T05:09:00;101021.03;;;16.15;85.55
16255;BME280;8235;52.198;9.904;2022-07-23T05:11:26;101015.66;;;16.15;85.74
16255;BME280;8235;52.198;9.904;2022-07-23T05:13:53;101009.31;;;16.16;85.61
16255;BME280;8235;52.198;9.904;2022-07-23T05:16:19;101020.78;;;16.18;85.55
16255;BME280;8235;52.198;9.904;2022-07-23T05:18:46;101010.03;;;16.18;85.58
16255;BME280;8235;52.198;9.904;2022-07-23T05:21:12;101015.41;;;16.18;85.51
16255;BME280;8235;52.198;9.904;2022-07-23T05:23:40;101010.03;;;16.18;85.10
16255;BME280;8235;52.198;9.904;2022-07-23T05:26:07;101012.72;;;16.18;85.33
16255;BME280;8235;52.198;9.904;2022-07-23T05:28:33;101012.72;;;16.18;85.46
16255;BME280;8235;52.198;9.904;2022-07-23T05:31:00;101009.91;;;16.19;85.75
16255;BME280;8235;52.198;9.904;2022-07-23T05:33:27;101013.22;;;16.23;85.62
16255;BME280;8235;52.198;9.904;2022-07-23T05:35:53;101013.81;;;16.26;85.78
16255;BME280;8235;52.198;9.904;2022-07-23T05:38:20;101012.56;;;16.30;85.55
16255;BME280;8235;52.198;9.904;2022-07-23T05:40:48;101016.72;;;16.35;85.55
16255;BME280;8235;52.198;9.904;2022-07-23T05:43:14;101019.78;;;16.41;85.64
16255;BME280;8235;52.198;9.904;2022-07-23T05:45:41;101021.25;;;16.45;85.39
16255;BME280;8235;52.198;9.904;2022-07-23T05:48:07;101023.53;;;16.50;85.41
16255;BME280;8235;52.198;9.904;2022-07-23T05:50:34;101022.19;;;16.55;85.10
16255;BME280;8235;52.198;9.904;2022-07-23T05:53:00;101024.63;;;16.58;84.56
16255;BME280;8235;52.198;9.904;2022-07-23T05:55:27;101017.28;;;16.60;84.36
16255;BME280;8235;52.198;9.904;2022-07-23T05:57:58;101020.63;;;16.64;83.87
16255;BME280;8235;52.198;9.904;2022-07-23T06:00:26;101019.75;;;16.63;83.63
16255;BME280;8235;52.198;9.904;2022-07-23T06:02:53;101029.25;;;16.67;83.62
16255;BME280;8235;52.198;9.904;2022-07-23T06:05:19;101021.41;;;16.76;83.42
16255;BME280;8235;52.198;9.904;2022-07-23T06:07:46;101024.34;;;16.84;83.17
16255;BME280;8235;52.198;9.904;2022-07-23T06:10:12;101025.25;;;16.94;83.32
16255;BME280;8235;52.198;9.904;2022-07-23T06:12:39;101026.19;;;17.04;83.43
16255;BME280;8235;52.198;9.904;2022-07-23T06:15:09;101027.84;;;17.16;83.36
16255;BME280;8235;52.198;9.904;2022-07-23T06:17:35;101031.19;;;17.29;83.24
16255;BME280;8235;52.198;9.904;2022-07-23T06:20:04;101031.13;;;17.41;82.40
16255;BME280;8235;52.198;9.904;2022-07-23T06:22:31;101033.31;;;17.47;80.93
16255;BME280;8235;52.198;9.904;2022-07-23T06:24:58;101032.06;;;17.51;79.47
16255;BME280;8235;52.198;9.904;2022-07-23T06:27:24;101028.81;;;17.57;78.72
16255;BME280;8235;52.198;9.904;2022-07-23T06:29:51;101025.38;;;17.66;77.90
16255;BME280;8235;52.198;9.904;2022-07-23T06:32:19;101026.25;;;17.76;76.90
16255;BME280;8235;52.198;9.904;2022-07-23T06:34:45;101026.47;;;17.84;75.95
16255;BME280;8235;52.198;9.904;2022-07-23T06:37:12;101033.84;;;17.92;74.80
16255;BME280;8235;52.198;9.904;2022-07-23T06:39:38;101027.94;;;17.98;73.94
16255;BME280;8235;52.198;9.904;2022-07-23T06:42:05;101035.34;;;18.06;73.12
16255;BME280;8235;52.198;9.904;2022-07-23T06:44:31;101033.06;;;18.11;72.27
16255;BME280;8235;52.198;9.904;2022-07-23T06:46:58;101040.38;;;18.20;72.08
16255;BME280;8235;52.198;9.904;2022-07-23T06:49:26;101036.69;;;18.30;71.61
16255;BME280;8235;52.198;9.904;2022-07-23T06:51:52;101034.19;;;18.38;70.63
16255;BME280;8235;52.198;9.904;2022-07-23T06:54:19;101038.84;;;18.46;70.03
16255;BME280;8235;52.198;9.904;2022-07-23T06:56:45;101046.28;;;18.54;69.25
16255;BME280;8235;52.198;9.904;2022-07-23T06:59:12;101046.31;;;18.63;68.77
16255;BME280;8235;52.198;9.904;2022-07-23T07:01:38;101050.59;;;18.76;68.48
16255;BME280;8235;52.198;9.904;2022-07-23T07:04:05;101042.38;;;18.87;68.08
16255;BME280;8235;52.198;9.904;2022-07-23T07:06:33;101044.09;;;18.97;67.72
16255;BME280;8235;52.198;9.904;2022-07-23T07:08:59;101039.13;;;19.12;67.38
16255;BME280;8235;52.198;9.904;2022-07-23T07:11:26;101038.09;;;19.23;66.60
16255;BME280;8235;52.198;9.904;2022-07-23T07:13:53;101048.06;;;19.32;65.51
16255;BME280;8235;52.198;9.904;2022-07-23T07:16:19;101045.75;;;19.37;64.82
16255;BME280;8235;52.198;9.904;2022-07-23T07:18:46;101049.59;;;19.44;64.25
16255;BME280;8235;52.198;9.904;2022-07-23T07:21:12;101041.69;;;19.52;63.94
16255;BME280;8235;52.198;9.904;2022-07-23T07:23:40;101054.16;;;19.63;63.29
16255;BME280;8235;52.198;9.904;2022-07-23T07:26:07;101053.25;;;19.72;63.07
16255;BME280;8235;52.198;9.904;2022-07-23T07:28:33;101049.41;;;19.84;63.23
16255;BME280;8235;52.198;9.904;2022-07-23T07:31:00;101054.63;;;19.95;62.48
16255;BME280;8235;52.198;9.904;2022-07-23T07:33:26;101056.13;;;20.07;62.05
16255;BME280;8235;52.198;9.904;2022-07-23T07:35:54;101060.66;;;20.17;61.32
16255;BME280;8235;52.198;9.904;2022-07-23T07:38:20;101058.91;;;20.25;60.99
16255;BME280;8235;52.198;9.904;2022-07-23T07:40:48;101064.44;;;20.33;60.44
16255;BME280;8235;52.198;9.904;2022-07-23T07:43:15;101058.88;;;20.35;59.44
16255;BME280;8235;52.198;9.904;2022-07-23T07:45:41;101060.47;;;20.37;59.25
16255;BME280;8235;52.198;9.904;2022-07-23T07:48:08;101055.97;;;20.46;58.80
16255;BME280;8235;52.198;9.904;2022-07-23T07:50:34;101063.91;;;20.57;58.19
16255;BME280;8235;52.198;9.904;2022-07-23T07:53:01;101081.53;;;20.61;57.64
16255;BME280;8235;52.198;9.904;2022-07-23T07:55:27;101076.44;;;20.58;57.01
16255;BME280;8235;52.198;9.904;2022-07-23T07:57:55;101080.38;;;20.64;57.28
16255;BME280;8235;52.198;9.904;2022-07-23T08:00:22;101076.78;;;20.73;57.17
16255;BME280;8235;52.198;9.904;2022-07-23T08:02:50;101075.53;;;20.85;56.79
16255;BME280;8235;52.198;9.904;2022-07-23T08:05:18;101072.59;;;20.96;56.15
16255;BME280;8235;52.198;9.904;2022-07-23T08:07:45;101084.06;;;21.08;55.62
16255;BME280;8235;52.198;9.904;2022-07-23T08:10:12;101071.44;;;21.17;54.73
16255;BME280;8235;52.198;9.904;2022-07-23T08:12:43;101082.56;;;21.23;54.28
16255;BME280;8235;52.198;9.904;2022-07-23T08:15:12;101082.69;;;21.22;53.47
16255;BME280;8235;52.198;9.904;2022-07-23T08:17:40;101080.53;;;21.25;53.50
16255;BME280;8235;52.198;9.904;2022-07-23T08:20:09;101080.44;;;21.35;54.21
16255;BME280;8235;52.198;9.904;2022-07-23T08:22:47;101079.66;;;21.42;53.76
16255;BME280;8235;52.198;9.904;2022-07-23T08:25:13;101084.84;;;21.54;53.81
16255;BME280;8235;52.198;9.904;2022-07-23T08:27:40;101080.81;;;21.58;52.55
16255;BME280;8235;52.198;9.904;2022-07-23T08:30:08;101080.56;;;21.51;52.47
16255;BME280;8235;52.198;9.904;2022-07-23T08:32:49;101085.13;;;21.51;53.13
16255;BME280;8235;52.198;9.904;2022-07-23T08:35:16;101084.13;;;21.52;53.03
16255;BME280;8235;52.198;9.904;2022-07-23T08:37:42;101092.34;;;21.60;53.07
16255;BME280;8235;52.198;9.904;2022-07-23T08:40:10;101088.66;;;21.69;53.21
16255;BME280;8235;52.198;9.904;2022-07-23T08:42:37;101088.03;;;21.75;52.33
16255;BME280;8235;52.198;9.904;2022-07-23T08:45:07;101094.47;;;21.74;51.36
16255;BME280;8235;52.198;9.904;2022-07-23T08:47:34;101102.44;;;21.75;51.36
16255;BME280;8235;52.198;9.904;2022-07-23T08:50:04;101100.66;;;21.84;51.30
16255;BME280;8235;52.198;9.904;2022-07-23T08:52:31;101096.97;;;21.93;50.77
16255;BME280;8235;52.198;9.904;2022-07-23T08:54:57;101096.22;;;22.01;50.63
16255;BME280;8235;52.198;9.904;2022-07-23T08:57:24;101097.38;;;21.98;50.41
16255;BME280;8235;52.198;9.904;2022-07-23T08:59:50;101101.78;;;21.99;50.52
16255;BME280;8235;52.198;9.904;2022-07-23T09:02:17;101097.44;;;22.06;50.59
16255;BME280;8235;52.198;9.904;2022-07-23T09:04:44;101091.06;;;22.15;50.36
16255;BME280;8235;52.198;9.904;2022-07-23T09:07:12;101090.44;;;22.30;50.47
16255;BME280;8235;52.198;9.904;2022-07-23T09:09:39;101090.19;;;22.49;49.92
16255;BME280;8235;52.198;9.904;2022-07-23T09:12:07;101087.53;;;22.65;49.11
16255;BME280;8235;52.198;9.904;2022-07-23T09:14:38;101096.25;;;22.77;48.60
16255;BME280;8235;52.198;9.904;2022-07-23T09:17:10;101090.31;;;22.81;47.59
16255;BME280;8235;52.198;9.904;2022-07-23T09:19:37;101099.31;;;22.82;47.41
16255;BME280;8235;52.198;9.904;2022-07-23T09:22:25;101092.06;;;22.91;47.86
16255;BME280;8235;52.198;9.904;2022-07-23T09:25:07;101089.34;;;22.99;47.52
16255;BME280;8235;52.198;9.904;2022-07-23T09:27:49;101099.56;;;23.05;47.39
16255;BME280;8235;52.198;9.904;2022-07-23T09:30:17;101100.56;;;23.04;47.04
16255;BME280;8235;52.198;9.904;2022-07-23T09:32:44;101108.38;;;23.07;46.88
16255;BME280;8235;52.198;9.904;2022-07-23T09:35:43;101109.06;;;23.17;47.06
16255;BME280;8235;52.198;9.904;2022-07-23T09:38:11;101096.03;;;23.29;47.03
16255;BME280;8235;52.198;9.904;2022-07-23T09:40:38;101098.75;;;23.45;46.76
16255;BME280;8235;52.198;9.904;2022-07-23T09:43:04;101085.34;;;23.51;45.68
16255;BME280;8235;52.198;9.904;2022-07-23T09:45:31;101096.22;;;23.51;44.98
16255;BME280;8235;52.198;9.904;2022-07-23T09:48:10;101093.31;;;23.53;44.97
16255;BME280;8235;52.198;9.904;2022-07-23T09:50:36;101092.81;;;23.58;45.33
16255;BME280;8235;52.198;9.904;2022-07-23T09:53:06;101087.34;;;23.66;45.10
16255;BME280;8235;52.198;9.904;2022-07-23T09:55:35;101090.09;;;23.74;45.75
16255;BME280;8235;52.198;9.904;2022-07-23T09:58:04;101078.00;;;23.84;45.14
16255;BME280;8235;52.198;9.904;2022-07-23T10:00:32;101077.47;;;23.89;44.85
16255;BME280;8235;52.198;9.904;2022-07-23T10:02:59;101069.66;;;23.86;44.13
16255;BME280;8235;52.198;9.904;2022-07-23T10:05:27;101089.75;;;23.77;44.33
16255;BME280;8235;52.198;9.904;2022-07-23T10:07:55;101088.56;;;23.79;45.19
16255;BME280;8235;52.198;9.904;2022-07-23T10:10:23;101078.16;;;23.91;45.59
16255;BME280;8235;52.198;9.904;2022-07-23T10:12:55;101083.03;;;24.04;44.98
16255;BME280;8235;52.198;9.904;2022-07-23T10:15:39;101086.44;;;24.14;44.70
16255;BME280;8235;52.198;9.904;2022-07-23T10:18:10;101087.41;;;24.21;43.45
16255;BME280;8235;52.198;9.904;2022-07-23T10:20:37;101084.41;;;24.16;42.98
16255;BME280;8235;52.198;9.904;2022-07-23T10:23:11;101076.91;;;24.10;43.37
16255;BME280;8235;52.198;9.904;2022-07-23T10:25:45;101081.00;;;24.14;43.71
16255;BME280;8235;52.198;9.904;2022-07-23T10:28:30;101082.81;;;24.21;43.39
16255;BME280;8235;52.198;9.904;2022-07-23T10:31:14;101086.06;;;24.33;43.83
16255;BME280;8235;52.198;9.904;2022-07-23T10:34:00;101079.22;;;24.45;43.11
16255;BME280;8235;52.198;9.904;2022-07-23T10:36:35;101087.38;;;24.45;42.52
16255;BME280;8235;52.198;9.904;2022-07-23T10:39:15;101085.50;;;24.46;42.57
16255;BME280;8235;52.198;9.904;2022-07-23T10:41:44;101074.94;;;24.51;42.37
16255;BME280;8235;52.198;9.904;2022-07-23T10:44:13;101085.09;;;24.57;42.43
16255;BME280;8235;52.198;9.904;2022-07-23T10:46:57;101099.22;;;24.61;41.89
16255;BME280;8235;52.198;9.904;2022-07-23T10:49:36;101093.44;;;24.55;41.82
16255;BME280;8235;52.198;9.904;2022-07-23T10:52:20;101092.28;;;24.50;41.56
16255;BME280;8235;52.198;9.904;2022-07-23T10:54:48;101089.91;;;24.47;41.71
16255;BME280;8235;52.198;9.904;2022-07-23T10:57:17;101084.66;;;24.45;42.09
16255;BME280;8235;52.198;9.904;2022-07-23T11:00:20;101081.94;;;24.45;42.07
16255;BME280;8235;52.198;9.904;2022-07-23T11:02:48;101081.41;;;24.50;42.20
16255;BME280;8235;52.198;9.904;2022-07-23T11:05:16;101090.38;;;24.58;42.52
16255;BME280;8235;52.198;9.904;2022-07-23T11:08:13;101081.66;;;24.63;41.60
16255;BME280;8235;52.198;9.904;2022-07-23T11:10:44;101086.59;;;24.68;41.60
16255;BME280;8235;52.198;9.904;2022-07-23T11:13:40;101083.97;;;24.74;41.45
16255;BME280;8235;52.198;9.904;2022-07-23T11:16:22;101073.25;;;24.73;41.06
16255;BME280;8235;52.198;9.904;2022-07-23T11:21:51;101077.84;;;24.80;40.86
16255;BME280;8235;52.198;9.904;2022-07-23T11:24:20;101077.84;;;24.80;41.04
16255;BME280;8235;52.198;9.904;2022-07-23T11:26:50;101077.13;;;24.86;40.89
16255;BME280;8235;52.198;9.904;2022-07-23T11:29:49;101062.63;;;24.94;41.19
16255;BME280;8235;52.198;9.904;2022-07-23T11:32:36;101072.50;;;24.95;41.28
16255;BME280;8235;52.198;9.904;2022-07-23T11:35:21;101070.25;;;24.99;40.70
16255;BME280;8235;52.198;9.904;2022-07-23T11:37:48;101065.16;;;24.96;40.92
16255;BME280;8235;52.198;9.904;2022-07-23T11:40:19;101064.31;;;24.95;40.65
16255;BME280;8235;52.198;9.904;2022-07-23T11:42:52;101067.19;;;24.93;40.53
16255;BME280;8235;52.198;9.904;2022-07-23T11:45:20;101066.72;;;24.90;41.19
16255;BME280;8235;52.198;9.904;2022-07-23T11:47:48;101067.75;;;24.89;40.66
16255;BME280;8235;52.198;9.904;2022-07-23T11:50:15;101068.94;;;24.86;40.98
16255;BME280;8235;52.198;9.904;2022-07-23T11:52:41;101074.91;;;24.90;41.18
16255;BME280;8235;52.198;9.904;2022-07-23T11:55:10;101072.31;;;24.97;41.19
16255;BME280;8235;52.198;9.904;2022-07-23T11:57:39;101071.59;;;25.03;40.72
16255;BME280;8235;52.198;9.904;2022-07-23T12:00:07;101068.81;;;25.11;41.13
16255;BME280;8235;52.198;9.904;2022-07-23T12:02:36;101061.44;;;25.19;40.24
16255;BME280;8235;52.198;9.904;2022-07-23T12:05:05;101069.69;;;25.26;40.11
16255;BME280;8235;52.198;9.904;2022-07-23T12:07:34;101064.19;;;25.34;40.51
16255;BME280;8235;52.198;9.904;2022-07-23T12:10:04;101066.88;;;25.42;40.01
16255;BME280;8235;52.198;9.904;2022-07-23T12:12:38;101067.16;;;25.47;39.92
16255;BME280;8235;52.198;9.904;2022-07-23T12:15:06;101063.13;;;25.43;39.51
16255;BME280;8235;52.198;9.904;2022-07-23T12:17:37;101068.06;;;25.40;39.66
16255;BME280;8235;52.198;9.904;2022-07-23T12:20:08;101068.34;;;25.45;39.76
16255;BME280;8235;52.198;9.904;2022-07-23T12:22:38;101055.50;;;25.53;39.50
16255;BME280;8235;52.198;9.904;2022-07-23T12:25:07;101067.56;;;25.59;38.97
16255;BME280;8235;52.198;9.904;2022-07-23T12:27:34;101070.13;;;25.60;38.89
16255;BME280;8235;52.198;9.904;2022-07-23T12:30:15;101057.31;;;25.61;38.76
16255;BME280;8235;52.198;9.904;2022-07-23T12:32:43;101063.44;;;25.63;38.95
16255;BME280;8235;52.198;9.904;2022-07-23T12:35:12;101054.91;;;25.66;39.19
16255;BME280;8235;52.198;9.904;2022-07-23T12:37:40;101058.59;;;25.73;38.73
16255;BME280;8235;52.198;9.904;2022-07-23T12:40:24;101065.19;;;25.79;38.76
16255;BME280;8235;52.198;9.904;2022-07-23T12:42:53;101057.47;;;25.82;38.90
16255;BME280;8235;52.198;9.904;2022-07-23T12:45:20;101068.00;;;25.85;38.24
16255;BME280;8235;52.198;9.904;2022-07-23T12:47:54;101070.91;;;25.84;38.02
16255;BME280;8235;52.198;9.904;2022-07-23T12:50:41;101060.84;;;25.84;38.28
16255;BME280;8235;52.198;9.904;2022-07-23T12:53:11;101067.34;;;25.83;38.01
16255;BME280;8235;52.198;9.904;2022-07-23T12:55:38;101075.53;;;25.83;38.17
16255;BME280;8235;52.198;9.904;2022-07-23T12:58:11;101072.06;;;25.89;38.25
16255;BME280;8235;52.198;9.904;2022-07-23T13:01:05;101070.84;;;25.92;37.83
16255;BME280;8235;52.198;9.904;2022-07-23T13:03:37;101072.19;;;25.96;38.18
16255;BME280;8235;52.198;9.904;2022-07-23T13:06:07;101070.38;;;26.03;37.71
16255;BME280;8235;52.198;9.904;2022-07-23T13:08:35;101069.16;;;26.06;37.64
16255;BME280;8235;52.198;9.904;2022-07-23T13:11:03;101065.56;;;26.05;37.25